createdAt,value
2017-11-26T00:00:49.233Z,8.70
2017-11-26T00:03:16.795Z,9.90
2017-11-26T00:05:44.336Z,8.77
2017-11-26T00:08:11.915Z,10.17
2017-11-26T00:10:39.447Z,10.47
2017-11-26T00:13:07.039Z,9.03
2017-11-26T00:15:34.586Z,9.13
2017-11-26T00:18:02.131Z,9.07
2017-11-26T00:20:29.706Z,9.90
2017-11-26T00:22:57.243Z,11.03
2017-11-26T00:25:24.810Z,10.10
2017-11-26T00:27:52.348Z,10.30
2017-11-26T00:30:20.688Z,11.40
2017-11-26T00:32:48.232Z,11.07
2017-11-26T00:35:15.800Z,11.00
2017-11-26T00:37:43.341Z,10.10
2017-11-26T00:40:11.678Z,10.80
2017-11-26T00:42:39.983Z,10.20
2017-11-26T00:45:07.554Z,11.07
2017-11-26T00:47:35.099Z,10.80
2017-11-26T00:50:02.664Z,10.73
2017-11-26T00:52:30.218Z,12.23
2017-11-26T00:54:57.793Z,11.73
2017-11-26T00:57:25.327Z,10.83
2017-11-26T00:59:52.880Z,9.80
2017-11-26T01:02:21.188Z,11.50
2017-11-26T01:04:48.753Z,10.63
2017-11-26T01:07:16.296Z,11.10
2017-11-26T01:09:43.876Z,11.13
2017-11-26T01:12:11.421Z,11.40
2017-11-26T01:14:38.992Z,10.80
2017-11-26T01:17:06.525Z,10.20
2017-11-26T01:19:34.838Z,11.80
2017-11-26T01:22:02.409Z,10.03
2017-11-26T01:24:29.949Z,10.53
2017-11-26T01:26:57.526Z,10.77
2017-11-26T01:29:25.069Z,11.00
2017-11-26T01:31:52.642Z,10.00
2017-11-26T01:34:20.189Z,9.83
2017-11-26T01:36:47.752Z,9.67
2017-11-26T01:39:15.294Z,11.53
2017-11-26T01:41:42.856Z,9.53
2017-11-26T01:44:11.156Z,9.90
2017-11-26T01:46:38.726Z,10.60
2017-11-26T01:49:06.264Z,10.00
2017-11-26T01:51:33.845Z,10.70
2017-11-26T01:54:01.397Z,10.60
2017-11-26T01:56:28.964Z,9.33
2017-11-26T01:58:56.512Z,9.57
2017-11-26T02:01:24.078Z,8.37
2017-11-26T02:03:58.368Z,9.43
2017-11-26T02:06:25.932Z,9.20
2017-11-26T02:08:53.470Z,10.03
2017-11-26T02:11:21.800Z,10.50
2017-11-26T02:13:49.333Z,9.80
2017-11-26T02:16:16.883Z,9.80
2017-11-26T02:18:44.441Z,10.30
2017-11-26T02:21:12.012Z,9.70
2017-11-26T02:23:39.547Z,9.27
2017-11-26T02:26:07.859Z,9.10
2017-11-26T02:28:35.394Z,9.63
2017-11-26T02:31:02.958Z,9.73
2017-11-26T02:33:42.375Z,8.63
2017-11-26T02:36:15.476Z,8.83
2017-11-26T02:38:43.016Z,9.70
2017-11-26T02:41:11.348Z,9.60
2017-11-26T02:43:38.883Z,9.67
2017-11-26T02:46:06.438Z,9.53
2017-11-26T02:48:33.992Z,10.53
2017-11-26T02:51:01.564Z,9.17
2017-11-26T02:53:29.097Z,9.10
2017-11-26T02:55:57.421Z,9.03
2017-11-26T02:58:24.981Z,10.47
2017-11-26T03:00:52.557Z,10.17
2017-11-26T03:03:20.098Z,10.20
2017-11-26T03:05:47.649Z,9.37
2017-11-26T03:08:15.197Z,10.57
2017-11-26T03:10:42.760Z,11.13
2017-11-26T03:13:10.311Z,10.50
2017-11-26T03:15:37.888Z,9.60
2017-11-26T03:18:05.435Z,10.10
2017-11-26T03:20:33.020Z,10.33
2017-11-26T03:23:00.564Z,10.27
2017-11-26T03:25:28.125Z,11.57
2017-11-26T03:27:55.664Z,10.63
2017-11-26T03:30:24.014Z,10.67
2017-11-26T03:32:51.560Z,10.60
2017-11-26T03:35:19.099Z,11.27
2017-11-26T03:37:46.646Z,11.10
2017-11-26T03:40:14.180Z,11.40
2017-11-26T03:42:41.760Z,12.10
2017-11-26T03:45:09.301Z,11.13
2017-11-26T03:47:37.633Z,11.73
2017-11-26T03:50:05.177Z,11.60
2017-11-26T03:52:44.163Z,12.10
2017-11-26T03:55:12.459Z,11.90
2017-11-26T03:57:40.032Z,12.97
2017-11-26T04:00:07.560Z,11.03
2017-11-26T04:02:35.892Z,11.40
2017-11-26T04:05:03.436Z,11.83
2017-11-26T04:07:31.019Z,11.20
2017-11-26T04:09:58.572Z,11.47
2017-11-26T04:12:26.148Z,11.03
2017-11-26T04:14:53.687Z,10.47
2017-11-26T04:17:21.255Z,10.87
2017-11-26T04:19:48.798Z,10.77
2017-11-26T04:22:16.361Z,10.47
2017-11-26T04:24:43.895Z,10.83
2017-11-26T04:27:11.457Z,11.03
2017-11-26T04:29:38.995Z,12.10
2017-11-26T04:32:07.323Z,10.67
2017-11-26T04:34:34.861Z,11.70
2017-11-26T04:37:02.417Z,11.80
2017-11-26T04:39:29.955Z,11.53
2017-11-26T04:41:58.284Z,13.70
2017-11-26T04:44:25.819Z,11.80
2017-11-26T04:46:53.381Z,12.80
2017-11-26T04:49:20.917Z,10.57
2017-11-26T04:51:48.490Z,12.80
2017-11-26T04:54:16.027Z,11.57
2017-11-26T04:56:44.345Z,12.53
2017-11-26T04:59:11.893Z,11.57
2017-11-26T05:01:39.463Z,12.77
2017-11-26T05:04:06.999Z,11.80
2017-11-26T05:06:34.562Z,12.17
2017-11-26T05:09:02.100Z,13.90
2017-11-26T05:11:30.426Z,12.40
2017-11-26T05:13:57.956Z,13.10
2017-11-26T05:16:25.513Z,14.10
2017-11-26T05:18:53.061Z,13.10
2017-11-26T05:21:21.378Z,13.70
2017-11-26T05:23:48.908Z,11.83
2017-11-26T05:26:16.478Z,14.30
2017-11-26T05:28:44.008Z,13.07
2017-11-26T05:31:12.353Z,12.60
2017-11-26T05:33:39.885Z,14.30
2017-11-26T05:36:07.469Z,12.80
2017-11-26T05:38:35.017Z,14.40
2017-11-26T05:41:02.617Z,13.63
2017-11-26T05:43:30.170Z,12.57
2017-11-26T05:45:59.594Z,13.10
2017-11-26T05:48:27.905Z,12.10
2017-11-26T05:50:56.245Z,13.47
2017-11-26T05:53:24.593Z,11.37
2017-11-26T05:55:52.131Z,11.77
2017-11-26T05:58:20.460Z,12.27
2017-11-26T06:00:48.772Z,11.03
2017-11-26T06:03:16.341Z,13.33
2017-11-26T06:05:43.881Z,11.37
2017-11-26T06:08:11.444Z,12.30
2017-11-26T06:10:38.984Z,13.03
2017-11-26T06:13:07.316Z,11.50
2017-11-26T06:15:34.866Z,11.10
2017-11-26T06:18:02.439Z,11.33
2017-11-26T06:20:29.970Z,11.50
2017-11-26T06:22:58.296Z,11.27
2017-11-26T06:25:25.833Z,10.77
2017-11-26T06:27:53.400Z,12.00
2017-11-26T06:51:23.570Z,13.17
2017-11-26T06:53:51.104Z,13.70
2017-11-26T06:56:18.665Z,13.30
2017-11-26T06:58:46.219Z,12.80
2017-11-26T07:01:13.783Z,13.37
2017-11-26T07:03:41.319Z,11.87
2017-11-26T07:06:08.852Z,12.20
2017-11-26T07:08:37.188Z,11.13
2017-11-26T07:11:04.728Z,12.50
2017-11-26T07:13:32.496Z,12.03
2017-11-26T07:16:00.083Z,10.70
2017-11-26T07:18:27.645Z,11.10
2017-11-26T07:20:55.187Z,10.20
2017-11-26T07:23:23.519Z,10.50
2017-11-26T07:25:51.819Z,10.40
2017-11-26T07:28:19.382Z,10.87
2017-11-26T07:30:46.921Z,10.37
2017-11-26T07:33:15.252Z,10.83
2017-11-26T07:35:42.783Z,11.17
2017-11-26T07:38:10.346Z,11.00
2017-11-26T07:40:37.884Z,10.80
2017-11-26T07:43:06.209Z,10.37
2017-11-26T07:45:33.754Z,12.00
2017-11-26T07:48:01.337Z,11.13
2017-11-26T07:50:28.864Z,11.03
2017-11-26T07:52:56.785Z,11.37
2017-11-26T07:55:24.319Z,9.80
2017-11-26T07:57:51.879Z,11.47
2017-11-26T08:00:19.411Z,10.40
2017-11-26T08:02:46.965Z,11.07
2017-11-26T08:05:14.508Z,9.60
2017-11-26T08:07:42.074Z,10.13
2017-11-26T08:10:09.614Z,9.30
2017-11-26T08:12:37.945Z,10.20
2017-11-26T08:15:05.488Z,14.67
2017-11-26T08:17:33.045Z,11.87
2017-11-26T08:20:01.030Z,10.23
2017-11-26T08:22:28.585Z,10.40
2017-11-26T08:24:56.143Z,11.20
2017-11-26T08:27:23.718Z,10.50
2017-11-26T08:29:51.257Z,10.27
2017-11-26T08:32:18.816Z,9.37
2017-11-26T08:34:46.340Z,8.63
2017-11-26T08:37:14.677Z,8.70
2017-11-26T08:39:42.218Z,8.13
2017-11-26T08:42:09.782Z,8.13
2017-11-26T08:44:37.317Z,7.53
2017-11-26T08:47:04.893Z,7.90
2017-11-26T08:49:32.424Z,9.07
2017-11-26T08:52:00.753Z,9.03
2017-11-26T08:54:28.288Z,7.80
2017-11-26T08:56:55.856Z,7.17
2017-11-26T08:59:23.381Z,6.73
2017-11-26T09:01:51.729Z,7.87
2017-11-26T09:04:19.264Z,7.30
2017-11-26T09:06:47.428Z,8.43
2017-11-26T09:09:14.978Z,7.30
2017-11-26T09:11:42.545Z,8.00
2017-11-26T09:14:10.089Z,7.43
2017-11-26T09:16:37.624Z,8.10
2017-11-26T09:19:06.008Z,7.17
2017-11-26T09:21:33.561Z,8.20
2017-11-26T09:24:01.892Z,8.23
2017-11-26T09:26:29.426Z,7.40
2017-11-26T09:28:56.975Z,6.83
2017-11-26T09:31:24.508Z,8.27
2017-11-26T09:33:52.072Z,6.83
2017-11-26T09:36:19.620Z,8.77
2017-11-26T09:38:47.191Z,7.17
2017-11-26T09:41:14.725Z,7.50
2017-11-26T09:43:42.289Z,6.93
2017-11-26T09:46:09.825Z,7.50
2017-11-26T09:48:37.372Z,7.00
2017-11-26T09:53:58.618Z,7.07
2017-11-26T09:56:26.157Z,7.10
2017-11-26T09:58:53.711Z,7.37
2017-11-26T10:01:21.240Z,5.80
2017-11-26T10:03:48.804Z,7.50
2017-11-26T10:06:17.105Z,20.27
2017-11-26T10:08:44.664Z,21.57
2017-11-26T10:11:12.222Z,11.77
2017-11-26T10:13:39.791Z,20.67
2017-11-26T10:16:07.330Z,7.90
2017-11-26T10:18:35.650Z,8.77
2017-11-26T10:21:03.180Z,9.13
2017-11-26T10:23:30.734Z,6.73
2017-11-26T10:25:58.273Z,6.97
2017-11-26T10:28:25.841Z,7.30
2017-11-26T10:30:54.148Z,7.33
2017-11-26T10:33:21.700Z,6.93
2017-11-26T10:35:49.237Z,7.63
2017-11-26T10:38:17.571Z,6.53
2017-11-26T10:40:45.100Z,7.60
2017-11-26T10:43:12.667Z,7.10
2017-11-26T10:45:40.200Z,7.47
2017-11-26T10:48:08.520Z,7.10
2017-11-26T10:50:36.049Z,8.90
2017-11-26T10:53:03.624Z,7.60
2017-11-26T10:55:31.156Z,7.37
2017-11-26T10:57:59.471Z,9.23
2017-11-26T11:00:27.011Z,8.73
2017-11-26T11:02:54.576Z,6.47
2017-11-26T11:05:22.128Z,9.10
2017-11-26T11:07:49.692Z,7.50
2017-11-26T11:10:17.227Z,6.90
2017-11-26T11:12:45.547Z,7.70
2017-11-26T11:15:13.071Z,7.13
2017-11-26T11:17:41.401Z,8.27
2017-11-26T11:20:08.940Z,9.07
2017-11-26T11:22:36.606Z,8.00
2017-11-26T11:25:04.143Z,6.67
2017-11-26T11:27:31.708Z,7.10
2017-11-26T11:29:59.240Z,6.20
2017-11-26T11:32:27.563Z,7.90
2017-11-26T11:34:55.100Z,6.93
2017-11-26T11:37:22.663Z,7.43
2017-11-26T11:39:50.198Z,6.57
2017-11-26T11:42:18.537Z,7.23
2017-11-26T11:44:46.075Z,5.90
2017-11-26T11:47:13.602Z,7.07
2017-11-26T11:49:41.930Z,5.03
2017-11-26T11:52:09.455Z,5.57
2017-11-26T11:54:54.992Z,7.70
2017-11-26T11:57:22.548Z,7.30
2017-11-26T11:59:50.118Z,7.13
2017-11-26T12:02:17.693Z,6.30
2017-11-26T12:04:46.019Z,7.63
2017-11-26T12:07:14.326Z,6.33
2017-11-26T12:09:41.888Z,7.43
2017-11-26T12:12:09.415Z,8.00
2017-11-26T12:14:36.971Z,9.60
2017-11-26T12:17:04.640Z,10.07
2017-11-26T12:19:32.196Z,10.60
2017-11-26T12:21:59.732Z,10.23
2017-11-26T12:24:27.288Z,7.80
2017-11-26T12:26:54.824Z,8.20
2017-11-26T12:29:22.380Z,6.63
2017-11-26T12:31:49.917Z,7.60
2017-11-26T12:34:17.813Z,9.00
2017-11-26T12:36:46.217Z,8.10
2017-11-26T12:39:13.787Z,8.97
2017-11-26T12:41:41.334Z,8.80
2017-11-26T12:44:08.896Z,7.80
2017-11-26T12:46:36.420Z,8.63
2017-11-26T12:49:03.989Z,8.50
2017-11-26T12:51:31.519Z,8.17
2017-11-26T12:53:59.075Z,10.00
2017-11-26T12:56:26.608Z,8.90
2017-11-26T12:58:54.169Z,6.90
2017-11-26T13:01:21.716Z,10.43
2017-11-26T13:03:49.273Z,8.73
2017-11-26T13:06:16.799Z,7.80
2017-11-26T13:08:44.388Z,9.07
2017-11-26T13:11:11.928Z,8.10
2017-11-26T13:13:40.268Z,7.53
2017-11-26T13:16:07.804Z,9.60
2017-11-26T13:18:35.372Z,7.60
2017-11-26T13:21:02.922Z,8.80
2017-11-26T13:23:30.493Z,9.70
2017-11-26T13:25:58.030Z,7.47
2017-11-26T13:28:25.585Z,8.53
2017-11-26T13:30:53.120Z,7.13
2017-11-26T13:33:21.451Z,7.10
2017-11-26T13:35:48.999Z,8.30
2017-11-26T13:38:16.573Z,8.00
2017-11-26T13:40:44.103Z,6.50
2017-11-26T13:43:11.674Z,6.67
2017-11-26T13:45:39.223Z,8.10
2017-11-26T13:48:06.791Z,7.00
2017-11-26T13:50:34.335Z,7.13
2017-11-26T13:53:01.943Z,6.60
2017-11-26T13:55:29.472Z,7.60
2017-11-26T13:57:57.043Z,9.07
2017-11-26T14:00:24.583Z,7.10
2017-11-26T14:02:52.118Z,5.70
2017-11-26T14:05:20.467Z,8.27
2017-11-26T14:07:48.016Z,7.77
2017-11-26T14:10:15.567Z,7.50
2017-11-26T14:12:43.115Z,8.20
2017-11-26T14:15:10.675Z,8.43
2017-11-26T14:17:38.212Z,6.67
2017-11-26T14:20:06.544Z,8.47
2017-11-26T14:22:34.094Z,6.57
2017-11-26T14:25:02.417Z,6.60
2017-11-26T14:27:30.716Z,7.37
2017-11-26T14:29:58.291Z,6.30
2017-11-26T14:32:25.832Z,8.50
2017-11-26T14:34:53.400Z,7.40
2017-11-26T14:37:20.955Z,5.60
2017-11-26T14:39:48.515Z,8.03
2017-11-26T14:42:16.052Z,6.43
2017-11-26T14:44:44.377Z,5.53
2017-11-26T14:47:11.983Z,7.77
2017-11-26T14:49:39.535Z,6.70
2017-11-26T14:52:07.073Z,6.77
2017-11-26T14:54:34.725Z,6.13
2017-11-26T14:57:02.283Z,6.43
2017-11-26T14:59:29.862Z,6.30
2017-11-26T15:01:57.453Z,7.53
2017-11-26T15:04:25.802Z,6.03
2017-11-26T15:06:53.335Z,5.77
2017-11-26T15:09:20.911Z,7.90
2017-11-26T15:11:48.437Z,7.07
2017-11-26T15:14:16.019Z,5.93
2017-11-26T15:16:43.577Z,5.97
2017-11-26T15:19:11.133Z,6.10
2017-11-26T15:21:38.699Z,6.20
2017-11-26T15:24:06.273Z,5.73
2017-11-26T15:26:33.855Z,6.27
2017-11-26T15:29:01.424Z,5.93
2017-11-26T15:31:28.952Z,5.80
2017-11-26T15:33:56.516Z,6.53
2017-11-26T15:36:24.051Z,6.00
2017-11-26T15:38:51.607Z,6.37
2017-11-26T15:41:19.132Z,7.23
2017-11-26T15:43:47.459Z,6.73
2017-11-26T15:46:15.000Z,6.60
2017-11-26T15:48:42.580Z,6.60
2017-11-26T15:51:10.112Z,7.60
2017-11-26T15:53:37.672Z,7.60
2017-11-26T15:56:05.204Z,7.10
2017-11-26T15:58:33.524Z,7.90
2017-11-26T16:01:01.066Z,7.50
2017-11-26T16:03:28.602Z,7.60
2017-11-26T16:05:56.932Z,8.63
2017-11-26T16:08:24.461Z,7.83
2017-11-26T16:10:52.020Z,7.40
2017-11-26T16:13:19.551Z,8.13
2017-11-26T16:15:47.878Z,7.30
2017-11-26T16:18:15.410Z,9.30
2017-11-26T16:20:42.976Z,9.17
2017-11-26T16:23:10.514Z,9.17
2017-11-26T16:25:38.896Z,8.90
2017-11-26T16:28:07.201Z,7.10
2017-11-26T16:30:34.765Z,7.63
2017-11-26T16:33:02.420Z,6.90
2017-11-26T16:35:29.976Z,9.43
2017-11-26T16:37:57.504Z,7.30
2017-11-26T16:40:25.064Z,7.63
2017-11-26T16:42:52.599Z,8.37
2017-11-26T16:45:20.148Z,7.03
2017-11-26T16:47:47.680Z,7.37
2017-11-26T16:50:15.237Z,6.80
2017-11-26T16:52:42.767Z,7.37
2017-11-26T16:55:11.107Z,9.87
2017-11-26T16:57:38.667Z,9.23
2017-11-26T17:00:06.231Z,7.67
2017-11-26T17:02:33.759Z,7.10
2017-11-26T17:05:01.393Z,6.57
2017-11-26T17:07:29.688Z,8.10
2017-11-26T17:09:57.240Z,7.67
2017-11-26T17:12:24.775Z,8.33
2017-11-26T17:14:52.324Z,6.20
2017-11-26T17:17:19.856Z,6.90
2017-11-26T17:19:47.407Z,8.50
2017-11-26T17:22:14.943Z,8.47
2017-11-26T17:24:42.493Z,8.13
2017-11-26T17:27:10.793Z,7.37
2017-11-26T17:29:38.354Z,8.00
2017-11-26T17:32:05.908Z,8.50
2017-11-26T17:34:33.469Z,6.67
2017-11-26T17:37:01.063Z,15.87
2017-11-26T17:39:28.621Z,16.03
2017-11-26T17:41:56.160Z,15.13
2017-11-26T17:44:23.722Z,9.03
2017-11-26T17:46:51.255Z,9.70
2017-11-26T17:49:18.820Z,11.70
2017-11-26T17:51:46.495Z,9.47
2017-11-26T17:54:14.181Z,8.80
2017-11-26T17:56:41.733Z,9.83
2017-11-26T17:59:09.300Z,8.37
2017-11-26T18:01:36.845Z,8.00
2017-11-26T18:04:04.421Z,9.37
2017-11-26T18:06:32.736Z,7.43
2017-11-26T18:09:01.056Z,8.80
2017-11-26T18:11:28.664Z,7.57
2017-11-26T18:13:56.197Z,8.00
2017-11-26T18:16:23.761Z,9.13
2017-11-26T18:18:51.292Z,9.50
2017-11-26T18:21:18.851Z,7.47
2017-11-26T18:23:46.387Z,8.90
2017-11-26T18:26:14.717Z,8.53
2017-11-26T18:28:42.261Z,10.77
2017-11-26T18:31:09.823Z,11.90
2017-11-26T18:33:37.355Z,9.87
2017-11-26T18:36:04.918Z,15.00
2017-11-26T18:38:32.456Z,17.60
2017-11-26T18:41:00.812Z,10.80
2017-11-26T18:43:28.356Z,9.40
2017-11-26T18:45:55.928Z,10.50
2017-11-26T18:48:23.488Z,8.20
2017-11-26T18:50:51.052Z,8.20
2017-11-26T18:53:18.597Z,7.97
2017-11-26T18:55:46.153Z,8.70
2017-11-26T18:58:13.683Z,8.50
2017-11-26T19:00:41.238Z,8.50
2017-11-26T19:03:08.763Z,7.60
2017-11-26T19:05:37.086Z,6.50
2017-11-26T19:08:04.624Z,6.93
2017-11-26T19:10:32.171Z,8.50
2017-11-26T19:13:00.481Z,7.90
2017-11-26T19:15:28.035Z,11.37
2017-11-26T19:17:55.569Z,11.43
2017-11-26T19:20:23.904Z,8.43
2017-11-26T19:22:52.252Z,7.40
2017-11-26T19:25:19.808Z,9.13
2017-11-26T19:27:47.336Z,6.60
2017-11-26T19:30:15.663Z,8.23
2017-11-26T19:32:43.193Z,7.97
2017-11-26T19:35:10.752Z,7.60
2017-11-26T19:37:38.287Z,7.03
2017-11-26T19:40:05.843Z,7.60
2017-11-26T19:42:34.145Z,6.70
2017-11-26T19:45:01.711Z,7.37
2017-11-26T19:47:29.240Z,7.67
2017-11-26T19:49:56.804Z,7.40
2017-11-26T19:52:25.106Z,8.17
2017-11-26T19:54:53.430Z,6.80
2017-11-26T19:57:20.971Z,7.03
2017-11-26T19:59:48.532Z,6.90
2017-11-26T20:02:16.062Z,6.37
2017-11-26T20:04:43.613Z,6.00
2017-11-26T20:07:11.908Z,5.60
2017-11-26T20:09:39.465Z,5.47
2017-11-26T20:12:06.992Z,5.73
2017-11-26T20:14:35.283Z,5.33
2017-11-26T20:17:03.612Z,5.63
2017-11-26T20:19:31.145Z,5.60
2017-11-26T20:21:58.700Z,5.47
2017-11-26T20:24:26.244Z,5.53
2017-11-26T20:26:53.804Z,6.00
2017-11-26T20:29:24.326Z,5.80
2017-11-26T20:31:52.648Z,6.10
2017-11-26T20:34:20.176Z,5.27
2017-11-26T20:36:47.735Z,5.70
2017-11-26T20:39:15.272Z,6.33
2017-11-26T20:41:43.596Z,5.80
2017-11-26T20:44:11.138Z,7.40
2017-11-26T20:46:38.693Z,6.30
2017-11-26T20:49:06.219Z,6.33
2017-11-26T20:51:33.771Z,6.90
2017-11-26T20:54:01.304Z,8.07
2017-11-26T20:56:28.854Z,9.13
2017-11-26T20:58:56.401Z,7.43
2017-11-26T21:01:23.966Z,10.53
2017-11-26T21:03:51.494Z,7.60
2017-11-26T21:06:19.821Z,8.50
2017-11-26T21:08:47.356Z,8.30
2017-11-26T21:11:14.909Z,8.90
2017-11-26T21:13:42.448Z,8.07
2017-11-26T21:16:10.765Z,9.70
2017-11-26T21:18:38.290Z,9.60
2017-11-26T21:21:06.610Z,8.60
2017-11-26T21:23:34.155Z,10.40
2017-11-26T21:26:01.740Z,10.60
2017-11-26T21:28:29.268Z,9.70
2017-11-26T21:30:56.827Z,8.90
2017-11-26T21:33:24.402Z,8.87
2017-11-26T21:35:51.972Z,9.00
2017-11-26T21:38:19.510Z,7.97
2017-11-26T21:40:47.271Z,9.03
2017-11-26T21:43:14.806Z,9.17
2017-11-26T21:45:43.131Z,8.73
2017-11-26T21:48:10.668Z,8.60
2017-11-26T21:50:38.224Z,8.37
2017-11-26T21:53:05.759Z,9.53
2017-11-26T21:55:33.765Z,9.60
2017-11-26T21:58:01.384Z,8.67
2017-11-26T22:00:29.044Z,8.47
2017-11-26T22:02:56.597Z,7.97
2017-11-26T22:05:24.140Z,8.40
2017-11-26T22:07:51.707Z,8.90
2017-11-26T22:10:19.232Z,8.20
2017-11-26T22:12:47.800Z,7.90
2017-11-26T22:15:15.327Z,7.83
2017-11-26T22:17:42.887Z,7.00
2017-11-26T22:20:10.419Z,7.00
2017-11-26T22:22:37.972Z,6.40
2017-11-26T22:25:06.269Z,6.93
2017-11-26T22:27:33.835Z,7.97
2017-11-26T22:30:01.360Z,7.00
2017-11-26T22:32:28.915Z,6.90
2017-11-26T22:34:56.453Z,7.07
2017-11-26T22:37:24.007Z,6.23
2017-11-26T22:39:51.542Z,5.30
2017-11-26T22:42:19.092Z,5.33
2017-11-26T22:44:46.619Z,5.73
2017-11-26T22:47:14.177Z,5.17
2017-11-26T22:49:41.705Z,5.27
2017-11-26T22:52:15.218Z,4.90
2017-11-26T22:54:42.743Z,6.10
2017-11-26T22:57:11.076Z,4.60
2017-11-26T22:59:38.607Z,4.93
2017-11-26T23:02:06.137Z,5.10
2017-11-26T23:04:36.368Z,5.00
2017-11-26T23:07:04.671Z,5.63
2017-11-26T23:09:32.242Z,5.50
2017-11-26T23:11:59.775Z,4.87
2017-11-26T23:14:28.080Z,5.23
2017-11-26T23:16:55.604Z,5.90
2017-11-26T23:19:23.927Z,6.77
2017-11-26T23:21:51.449Z,5.20
2017-11-26T23:24:19.760Z,5.43
2017-11-26T23:26:47.288Z,5.47
2017-11-26T23:29:14.838Z,5.20
2017-11-26T23:31:43.136Z,5.40
2017-11-26T23:34:10.696Z,5.43
2017-11-26T23:36:38.225Z,5.80
2017-11-26T23:39:05.780Z,6.13
2017-11-26T23:41:33.303Z,5.40
2017-11-26T23:44:00.853Z,5.33
2017-11-26T23:46:28.375Z,5.70
2017-11-26T23:48:56.686Z,5.57
2017-11-26T23:51:27.079Z,5.80
2017-11-26T23:53:55.391Z,5.30
2017-11-26T23:56:22.918Z,5.20
2017-11-26T23:58:51.208Z,6.07
